Time;durP1;ratioP1;P1;durP2;ratioP2;P2;SDS_P1;SDS_P2;PMS_P1;PMS_P2;Temp;Humidity;BMP_temperature;BMP_pressure;BME280_temperature;BME280_humidity;BME280_pressure;Samples;Min_cycle;Max_cycle;Signal;HPM_P1;HPM_P2
2022/07/17 00:02:04;;;;;;;;;;;15.20;99.90;;;;;;5012245;28;19933;-67
2022/07/17 00:04:33;;;;;;;;;;;15.10;99.90;;;;;;5011939;28;19933;-67
2022/07/17 00:07:00;;;;;;;;;;;15.10;99.90;;;;;;5010849;28;19926;-69
2022/07/17 00:09:26;;;;;;;;;;;14.90;99.90;;;;;;4994986;28;19980;-64
2022/07/17 00:11:53;;;;;;;;;;;14.90;99.90;;;;;;5007861;28;19949;-68
2022/07/17 00:14:20;;;;;;;;;;;14.90;99.90;;;;;;4990569;28;19933;-69
2022/07/17 00:16:47;;;;;;;;;;;14.80;99.90;;;;;;5009096;28;20278;-67
2022/07/17 00:19:13;;;;;;;;;;;14.80;99.90;;;;;;5022144;28;20353;-68
2022/07/17 00:21:42;;;;;;;;;;;14.70;99.90;;;;;;4991719;28;19926;-67
2022/07/17 00:24:10;;;;;;;;;;;;;;;;;;4992975;28;19947;-67
2022/07/17 00:26:37;;;;;;;;;;;14.60;99.90;;;;;;5020973;28;20377;-68
2022/07/17 00:29:03;;;;;;;;;;;14.50;99.90;;;;;;4994736;28;19941;-67
2022/07/17 00:31:30;;;;;;;;;;;14.40;99.90;;;;;;5021251;28;19925;-67
2022/07/17 00:33:57;;;;;;;;;;;14.30;99.90;;;;;;5013454;28;20382;-67
2022/07/17 00:36:24;;;;;;;;;;;14.40;99.90;;;;;;4995229;28;19933;-67
2022/07/17 00:38:52;;;;;;;;;;;14.40;99.90;;;;;;4991890;28;20308;-67
2022/07/17 00:41:19;;;;;;;;;;;14.20;99.90;;;;;;5016800;28;19926;-68
2022/07/17 00:43:46;;;;;;;;;;;14.10;99.90;;;;;;5016223;28;19933;-67
2022/07/17 00:46:13;;;;;;;;;;;14.20;99.90;;;;;;5015487;28;20016;-69
2022/07/17 00:48:39;;;;;;;;;;;14.20;99.90;;;;;;5018148;28;19964;-67
2022/07/17 00:51:07;;;;;;;;;;;14.20;99.90;;;;;;5014192;28;19929;-67
2022/07/17 00:53:34;;;;;;;;;;;14.30;99.90;;;;;;5016236;28;19929;-67
2022/07/17 00:56:04;;;;;;;;;;;14.30;99.90;;;;;;5011103;28;19936;-67
2022/07/17 00:58:31;;;;;;;;;;;14.40;99.90;;;;;;4994729;28;19933;-67
2022/07/17 01:00:58;;;;;;;;;;;14.50;99.90;;;;;;5006926;28;19930;-67
2022/07/17 01:03:25;;;;;;;;;;;14.40;99.90;;;;;;4994335;28;19948;-68
2022/07/17 01:05:53;;;;;;;;;;;14.30;99.90;;;;;;4990360;28;19926;-67
2022/07/17 01:08:20;;;;;;;;;;;14.20;99.90;;;;;;5019145;28;19930;-67
2022/07/17 01:10:48;;;;;;;;;;;14.20;99.90;;;;;;5022764;28;19980;-67
2022/07/17 01:13:16;;;;;;;;;;;14.20;99.90;;;;;;4989849;28;19987;-67
2022/07/17 01:15:43;;;;;;;;;;;14.10;99.90;;;;;;5022453;28;19933;-68
2022/07/17 01:18:11;;;;;;;;;;;14.10;99.90;;;;;;4991474;28;19925;-67
2022/07/17 01:20:38;;;;;;;;;;;14.10;99.90;;;;;;5018677;28;19926;-67
2022/07/17 01:23:07;;;;;;;;;;;14.10;99.90;;;;;;5014661;28;19929;-68
2022/07/17 01:25:34;;;;;;;;;;;14.00;99.90;;;;;;5009065;28;20337;-67
2022/07/17 01:28:01;;;;;;;;;;;14.00;99.90;;;;;;5017628;28;19933;-68
2022/07/17 01:30:28;;;;;;;;;;;14.00;99.90;;;;;;5019025;28;20340;-67
2022/07/17 01:32:54;;;;;;;;;;;14.00;99.90;;;;;;4987822;28;19933;-67
2022/07/17 01:35:21;;;;;;;;;;;14.00;99.90;;;;;;5013737;28;19925;-67
2022/07/17 01:37:49;;;;;;;;;;;14.00;99.90;;;;;;5009422;28;19939;-67
2022/07/17 01:40:17;;;;;;;;;;;14.00;99.90;;;;;;5014520;28;19926;-68
2022/07/17 01:42:45;;;;;;;;;;;14.00;99.90;;;;;;5020688;28;20006;-67
2022/07/17 01:45:13;;;;;;;;;;;14.00;99.90;;;;;;5021209;28;19932;-67
2022/07/17 01:47:40;;;;;;;;;;;14.00;99.90;;;;;;4993642;28;19925;-67
2022/07/17 01:50:08;;;;;;;;;;;14.00;99.90;;;;;;5010263;28;19941;-68
2022/07/17 01:52:35;;;;;;;;;;;13.80;99.90;;;;;;5011821;28;19926;-67
2022/07/17 01:55:03;;;;;;;;;;;13.80;99.90;;;;;;5019681;28;19932;-67
2022/07/17 01:57:31;;;;;;;;;;;13.80;99.90;;;;;;5018026;28;19932;-65
2022/07/17 01:59:58;;;;;;;;;;;13.70;99.90;;;;;;4989664;28;19925;-67
2022/07/17 02:02:25;;;;;;;;;;;13.70;99.90;;;;;;5012581;28;19925;-67
2022/07/17 02:04:52;;;;;;;;;;;13.70;99.90;;;;;;4992139;28;20032;-67
2022/07/17 02:07:19;;;;;;;;;;;13.60;99.90;;;;;;5014891;28;19926;-68
2022/07/17 02:09:46;;;;;;;;;;;13.50;99.90;;;;;;5014333;28;19932;-67
2022/07/17 02:12:12;;;;;;;;;;;13.40;99.90;;;;;;5014902;28;19925;-67
2022/07/17 02:14:41;;;;;;;;;;;13.50;99.90;;;;;;5013726;28;20396;-68
2022/07/17 02:17:08;;;;;;;;;;;13.30;99.90;;;;;;5007088;28;19933;-67
2022/07/17 02:19:34;;;;;;;;;;;13.20;99.90;;;;;;5020083;28;19925;-67
2022/07/17 02:22:01;;;;;;;;;;;13.10;99.90;;;;;;5011587;28;20428;-67
2022/07/17 02:24:28;;;;;;;;;;;13.00;99.90;;;;;;4993178;28;19933;-67
2022/07/17 02:26:55;;;;;;;;;;;12.90;99.90;;;;;;5020529;28;19941;-68
2022/07/17 02:29:21;;;;;;;;;;;12.80;99.90;;;;;;5009515;28;19983;-68
2022/07/17 02:31:50;;;;;;;;;;;12.80;99.90;;;;;;5011274;28;20448;-67
2022/07/17 02:34:16;;;;;;;;;;;12.80;99.90;;;;;;5008566;28;19937;-67
2022/07/17 02:36:43;;;;;;;;;;;12.80;99.90;;;;;;4993574;28;19930;-67
2022/07/17 02:39:10;;;;;;;;;;;12.80;99.90;;;;;;4995084;28;19925;-69
2022/07/17 02:41:37;;;;;;;;;;;12.80;99.90;;;;;;5011974;28;19937;-67
2022/07/17 02:44:04;;;;;;;;;;;12.80;99.90;;;;;;4992725;28;19925;-67
2022/07/17 02:46:31;;;;;;;;;;;12.70;99.90;;;;;;5017342;28;20420;-68
2022/07/17 02:48:59;;;;;;;;;;;12.80;99.90;;;;;;5029256;28;19949;-67
2022/07/17 02:51:26;;;;;;;;;;;12.60;99.90;;;;;;4993817;28;19957;-67
2022/07/17 02:53:53;;;;;;;;;;;12.70;99.90;;;;;;5019906;28;19929;-68
2022/07/17 02:56:20;;;;;;;;;;;12.70;99.90;;;;;;4997165;28;19933;-67
2022/07/17 02:58:46;;;;;;;;;;;12.50;99.90;;;;;;4993421;28;20220;-67
2022/07/17 03:01:13;;;;;;;;;;;12.50;99.90;;;;;;4996359;28;20467;-68
2022/07/17 03:03:41;;;;;;;;;;;12.50;99.90;;;;;;5012161;28;19926;-67
2022/07/17 03:06:09;;;;;;;;;;;12.50;99.90;;;;;;4991634;28;19932;-67
2022/07/17 03:08:36;;;;;;;;;;;12.50;99.90;;;;;;5019885;28;20312;-67
2022/07/17 03:11:03;;;;;;;;;;;12.40;99.90;;;;;;5018123;28;19933;-67
2022/07/17 03:13:29;;;;;;;;;;;12.30;99.90;;;;;;4997007;28;19930;-68
2022/07/17 03:15:56;;;;;;;;;;;12.20;99.90;;;;;;5017528;28;19926;-67
2022/07/17 03:18:23;;;;;;;;;;;12.10;99.90;;;;;;4996811;28;19958;-67
2022/07/17 03:20:50;;;;;;;;;;;12.10;99.90;;;;;;5013848;28;19929;-67
2022/07/17 03:23:18;;;;;;;;;;;12.20;99.90;;;;;;5022962;28;19929;-67
2022/07/17 03:25:45;;;;;;;;;;;12.20;99.90;;;;;;5020094;28;19925;-67
2022/07/17 03:28:12;;;;;;;;;;;12.10;99.90;;;;;;4991640;28;19925;-66
2022/07/17 03:30:38;;;;;;;;;;;12.10;99.90;;;;;;4994587;28;19946;-68
2022/07/17 03:33:05;;;;;;;;;;;12.10;99.90;;;;;;5013715;28;19933;-68
2022/07/17 03:35:32;;;;;;;;;;;12.00;99.90;;;;;;5004877;28;19926;-67
2022/07/17 03:37:59;;;;;;;;;;;12.10;99.90;;;;;;4994572;28;19933;-68
2022/07/17 03:40:27;;;;;;;;;;;11.90;99.90;;;;;;5014887;28;19933;-67
2022/07/17 03:42:54;;;;;;;;;;;11.90;99.90;;;;;;5013063;28;19929;-67
2022/07/17 03:45:21;;;;;;;;;;;11.90;99.90;;;;;;5016407;28;20400;-67
2022/07/17 03:47:48;;;;;;;;;;;12.00;99.90;;;;;;5007031;28;19929;-67
2022/07/17 03:50:14;;;;;;;;;;;12.00;99.90;;;;;;5026722;28;20397;-67
2022/07/17 03:52:41;;;;;;;;;;;12.00;99.90;;;;;;5004201;28;19929;-68
2022/07/17 03:55:09;;;;;;;;;;;12.00;99.90;;;;;;5014465;28;19933;-66
2022/07/17 03:57:37;;;;;;;;;;;12.00;99.90;;;;;;4992201;28;19987;-67
2022/07/17 04:00:04;;;;;;;;;;;12.00;99.90;;;;;;5012676;28;19925;-66
2022/07/17 04:02:38;;;;;;;;;;;12.00;99.90;;;;;;5009175;28;19925;-68
2022/07/17 04:05:09;;;;;;;;;;;12.00;99.90;;;;;;5023736;28;19933;-67
2022/07/17 04:07:36;;;;;;;;;;;12.00;99.90;;;;;;5025853;28;19980;-67
2022/07/17 04:10:03;;;;;;;;;;;11.90;99.90;;;;;;4996630;28;19925;-68
2022/07/17 04:12:31;;;;;;;;;;;11.90;99.90;;;;;;5007830;28;20379;-67
2022/07/17 04:14:59;;;;;;;;;;;11.90;99.90;;;;;;4992944;28;20341;-67
2022/07/17 04:17:26;;;;;;;;;;;11.80;99.90;;;;;;5009597;28;19926;-67
2022/07/17 04:19:53;;;;;;;;;;;11.80;99.90;;;;;;4995056;28;19979;-70
2022/07/17 04:22:20;;;;;;;;;;;12.00;99.90;;;;;;4998019;28;19926;-67
2022/07/17 04:24:47;;;;;;;;;;;12.00;99.90;;;;;;4989137;28;19965;-67
2022/07/17 04:27:14;;;;;;;;;;;12.00;99.90;;;;;;5020293;28;20308;-68
2022/07/17 04:29:41;;;;;;;;;;;12.00;99.90;;;;;;4993423;28;19925;-67
2022/07/17 04:32:09;;;;;;;;;;;12.00;99.90;;;;;;4994327;28;19925;-67
2022/07/17 04:34:36;;;;;;;;;;;12.00;99.90;;;;;;5012326;28;19926;-69
2022/07/17 04:37:03;;;;;;;;;;;12.10;99.90;;;;;;5018218;28;19937;-67
2022/07/17 04:39:30;;;;;;;;;;;12.10;99.90;;;;;;5019492;28;19948;-68
2022/07/17 04:41:57;;;;;;;;;;;12.00;99.90;;;;;;5015448;28;20024;-67
2022/07/17 04:44:24;;;;;;;;;;;12.00;99.90;;;;;;5010579;28;20428;-68
2022/07/17 04:46:51;;;;;;;;;;;12.00;99.90;;;;;;5012582;28;19929;-67
2022/07/17 04:49:19;;;;;;;;;;;12.20;99.90;;;;;;4993138;28;19937;-67
2022/07/17 04:51:46;;;;;;;;;;;12.30;99.90;;;;;;5010736;28;19932;-65
2022/07/17 04:54:13;;;;;;;;;;;12.40;99.90;;;;;;5011707;28;19926;-68
2022/07/17 04:56:40;;;;;;;;;;;12.50;99.90;;;;;;5009205;28;19933;-67
2022/07/17 04:59:06;;;;;;;;;;;12.60;99.90;;;;;;5010717;28;19925;-67
2022/07/17 05:01:34;;;;;;;;;;;12.70;99.90;;;;;;5014105;28;19940;-69
2022/07/17 05:04:01;;;;;;;;;;;12.70;99.90;;;;;;5017834;28;20396;-67
2022/07/17 05:06:29;;;;;;;;;;;12.80;99.90;;;;;;4984746;28;19992;-67
2022/07/17 05:08:56;;;;;;;;;;;12.80;99.90;;;;;;5010289;28;19933;-67
2022/07/17 05:11:23;;;;;;;;;;;12.90;99.90;;;;;;4991974;28;19925;-66
2022/07/17 05:13:50;;;;;;;;;;;12.90;99.90;;;;;;5005872;28;19926;-68
2022/07/17 05:16:17;;;;;;;;;;;12.90;99.90;;;;;;4994574;28;19925;-67
2022/07/17 05:18:43;;;;;;;;;;;13.00;99.90;;;;;;5018972;28;19956;-67
2022/07/17 05:21:10;;;;;;;;;;;13.20;99.90;;;;;;5013196;28;19932;-67
2022/07/17 05:23:39;;;;;;;;;;;13.40;99.90;;;;;;5010909;28;19933;-67
2022/07/17 05:26:05;;;;;;;;;;;13.50;99.90;;;;;;5010998;28;19925;-67
2022/07/17 05:28:32;;;;;;;;;;;13.50;99.90;;;;;;5012705;28;19929;-67
2022/07/17 05:30:59;;;;;;;;;;;13.60;99.90;;;;;;5010541;28;19930;-69
2022/07/17 05:33:26;;;;;;;;;;;13.60;99.90;;;;;;4989059;28;19940;-68
2022/07/17 05:35:53;;;;;;;;;;;13.70;99.90;;;;;;5003527;28;19989;-67
2022/07/17 05:38:19;;;;;;;;;;;13.70;99.90;;;;;;5009925;28;19926;-69
2022/07/17 05:40:48;;;;;;;;;;;13.60;99.90;;;;;;4993961;28;19949;-68
2022/07/17 05:43:14;;;;;;;;;;;13.70;99.90;;;;;;5011593;28;19929;-66
2022/07/17 05:45:41;;;;;;;;;;;13.90;99.90;;;;;;4991441;28;19930;-67
2022/07/17 05:48:08;;;;;;;;;;;14.00;99.90;;;;;;5010511;28;19926;-67
2022/07/17 05:50:35;;;;;;;;;;;14.10;99.90;;;;;;5021361;28;20321;-65
2022/07/17 05:53:02;;;;;;;;;;;14.30;99.90;;;;;;4991386;28;19933;-67
2022/07/17 05:55:29;;;;;;;;;;;14.30;99.90;;;;;;5015261;28;19930;-67
2022/07/17 05:57:57;;;;;;;;;;;14.40;99.90;;;;;;5013812;28;19926;-66
2022/07/17 06:00:24;;;;;;;;;;;14.40;99.90;;;;;;5013293;28;19971;-67
2022/07/17 06:02:51;;;;;;;;;;;14.50;99.90;;;;;;5014634;28;19925;-68
2022/07/17 06:05:17;;;;;;;;;;;14.60;99.90;;;;;;5014835;28;20389;-67
2022/07/17 06:07:44;;;;;;;;;;;14.80;99.90;;;;;;5014446;28;19925;-64
2022/07/17 06:10:11;;;;;;;;;;;14.80;99.90;;;;;;5009463;28;19925;-67
2022/07/17 06:12:38;;;;;;;;;;;15.00;99.90;;;;;;5012404;28;20390;-65
2022/07/17 06:15:06;;;;;;;;;;;15.10;99.90;;;;;;5011551;28;19930;-66
2022/07/17 06:17:33;;;;;;;;;;;15.30;99.90;;;;;;5001750;28;19929;-66
2022/07/17 06:20:00;;;;;;;;;;;15.40;99.90;;;;;;5018050;28;20396;-68
2022/07/17 06:22:27;;;;;;;;;;;15.40;99.90;;;;;;4990984;28;19926;-68
2022/07/17 06:24:54;;;;;;;;;;;15.40;99.90;;;;;;5012867;28;19926;-66
2022/07/17 06:27:20;;;;;;;;;;;15.50;99.90;;;;;;4993299;28;19933;-65
2022/07/17 06:29:47;;;;;;;;;;;15.70;99.90;;;;;;4992906;28;19932;-67
2022/07/17 06:32:16;;;;;;;;;;;16.00;99.90;;;;;;4993470;28;19926;-66
2022/07/17 06:34:42;;;;;;;;;;;16.00;99.90;;;;;;5014275;28;19929;-68
2022/07/17 06:37:09;;;;;;;;;;;16.10;99.90;;;;;;5022430;28;19930;-67
2022/07/17 06:39:36;;;;;;;;;;;16.20;99.90;;;;;;5019764;28;19957;-67
2022/07/17 06:42:03;;;;;;;;;;;16.20;99.90;;;;;;5015466;28;19926;-67
2022/07/17 06:44:30;;;;;;;;;;;16.30;99.90;;;;;;5019468;28;19930;-66
2022/07/17 06:46:57;;;;;;;;;;;16.30;99.90;;;;;;4991189;28;19926;-66
2022/07/17 06:49:25;;;;;;;;;;;16.40;99.90;;;;;;5020203;28;19933;-66
2022/07/17 06:51:52;;;;;;;;;;;16.50;99.90;;;;;;5014361;28;19933;-67
2022/07/17 06:54:19;;;;;;;;;;;16.60;99.90;;;;;;4993882;28;19925;-66
2022/07/17 06:56:46;;;;;;;;;;;16.60;99.90;;;;;;5004371;28;19932;-66
2022/07/17 06:59:12;;;;;;;;;;;16.80;99.90;;;;;;5014566;28;19930;-66
2022/07/17 07:01:39;;;;;;;;;;;16.90;99.90;;;;;;4989267;28;19925;-66
2022/07/17 07:04:06;;;;;;;;;;;17.00;99.90;;;;;;5004497;28;19926;-68
2022/07/17 07:06:34;;;;;;;;;;;17.10;99.90;;;;;;5008660;28;19925;-67
2022/07/17 07:09:01;;;;;;;;;;;17.20;99.90;;;;;;4990544;28;19932;-66
2022/07/17 07:11:27;;;;;;;;;;;17.40;99.90;;;;;;5017379;28;19930;-66
2022/07/17 07:13:54;;;;;;;;;;;17.50;99.90;;;;;;5014226;28;19933;-64
2022/07/17 07:16:21;;;;;;;;;;;17.60;99.90;;;;;;5020520;28;20396;-66
2022/07/17 07:18:48;;;;;;;;;;;17.80;99.90;;;;;;5011745;28;19930;-65
2022/07/17 07:21:15;;;;;;;;;;;17.90;99.90;;;;;;5018167;28;19929;-68
2022/07/17 07:23:43;;;;;;;;;;;18.00;99.90;;;;;;5010959;28;19925;-67
2022/07/17 07:26:10;;;;;;;;;;;18.10;99.90;;;;;;4990578;28;19929;-67
2022/07/17 07:28:37;;;;;;;;;;;18.10;99.90;;;;;;5020510;28;20312;-64
2022/07/17 07:31:04;;;;;;;;;;;18.20;99.90;;;;;;5013611;28;19926;-66
2022/07/17 07:33:31;;;;;;;;;;;18.40;99.90;;;;;;5018624;28;19925;-67
2022/07/17 07:35:58;;;;;;;;;;;18.50;99.90;;;;;;5013706;28;19926;-66
2022/07/17 07:38:25;;;;;;;;;;;18.60;99.90;;;;;;4996661;28;20344;-66
2022/07/17 07:40:53;;;;;;;;;;;18.80;99.90;;;;;;5019004;28;19925;-66
2022/07/17 07:43:20;;;;;;;;;;;18.80;99.90;;;;;;5018007;28;19937;-66
2022/07/17 07:45:47;;;;;;;;;;;18.90;99.90;;;;;;5012395;28;20377;-68
2022/07/17 07:48:13;;;;;;;;;;;18.90;99.90;;;;;;5017082;28;19952;-71
2022/07/17 07:50:41;;;;;;;;;;;19.10;99.90;;;;;;5019786;28;19940;-67
2022/07/17 07:53:07;;;;;;;;;;;19.20;99.90;;;;;;5024446;28;19925;-66
2022/07/17 07:55:34;;;;;;;;;;;19.40;99.90;;;;;;5020085;28;19926;-71
2022/07/17 07:58:06;;;;;;;;;;;19.50;99.90;;;;;;5015571;28;19926;-70
2022/07/17 08:00:33;;;;;;;;;;;19.60;99.90;;;;;;5023201;28;19945;-69
2022/07/17 08:03:00;;;;;;;;;;;19.70;99.90;;;;;;5021476;28;19933;-67
2022/07/17 08:05:27;;;;;;;;;;;19.80;99.90;;;;;;5012077;28;19925;-67
2022/07/17 08:07:54;;;;;;;;;;;19.90;99.90;;;;;;4989243;28;19925;-67
2022/07/17 08:10:21;;;;;;;;;;;20.00;99.90;;;;;;5015964;28;19991;-66
2022/07/17 08:12:47;;;;;;;;;;;20.00;99.90;;;;;;5011878;28;19973;-69
2022/07/17 08:15:16;;;;;;;;;;;20.10;99.90;;;;;;4990632;28;19932;-66
2022/07/17 08:17:44;;;;;;;;;;;20.10;99.90;;;;;;4996014;28;19929;-65
2022/07/17 08:20:11;;;;;;;;;;;20.20;99.90;;;;;;5011423;28;19930;-67
2022/07/17 08:22:38;;;;;;;;;;;20.20;99.90;;;;;;5010532;28;19926;-75
2022/07/17 08:25:05;;;;;;;;;;;20.30;99.90;;;;;;4995288;28;19932;-72
2022/07/17 08:27:35;;;;;;;;;;;20.40;99.90;;;;;;5009820;28;19943;-66
2022/07/17 08:30:02;;;;;;;;;;;20.60;99.90;;;;;;4994367;28;19929;-67
2022/07/17 08:32:30;;;;;;;;;;;20.70;99.90;;;;;;4994984;28;20373;-68
2022/07/17 08:34:57;;;;;;;;;;;20.70;99.90;;;;;;5013178;28;19926;-68
2022/07/17 08:37:24;;;;;;;;;;;20.90;99.90;;;;;;4995269;28;19925;-66
2022/07/17 08:39:51;;;;;;;;;;;20.70;99.90;;;;;;4994516;28;19930;-66
2022/07/17 08:42:17;;;;;;;;;;;20.70;99.90;;;;;;5016195;28;19980;-68
2022/07/17 08:44:44;;;;;;;;;;;20.80;99.90;;;;;;5019517;28;19953;-67
2022/07/17 08:47:11;;;;;;;;;;;21.00;99.90;;;;;;5021664;28;19930;-66
2022/07/17 08:49:42;;;;;;;;;;;21.20;99.90;;;;;;4994332;28;19929;-67
2022/07/17 08:52:10;;;;;;;;;;;21.30;99.90;;;;;;5016302;28;19949;-66
2022/07/17 08:54:36;;;;;;;;;;;21.40;99.90;;;;;;5015342;28;19980;-67
2022/07/17 08:57:03;;;;;;;;;;;21.40;99.90;;;;;;5013638;28;19930;-67
2022/07/17 08:59:30;;;;;;;;;;;21.50;99.90;;;;;;4992471;28;19926;-68
2022/07/17 09:01:58;;;;;;;;;;;21.50;99.90;;;;;;4992280;28;19926;-66
2022/07/17 09:04:25;;;;;;;;;;;21.70;99.90;;;;;;5009337;28;20456;-66
2022/07/17 09:07:00;;;;;;;;;;;22.00;99.90;;;;;;4994093;28;20409;-67
2022/07/17 09:09:28;;;;;;;;;;;22.00;99.90;;;;;;4993653;28;20412;-66
2022/07/17 09:11:55;;;;;;;;;;;22.20;99.90;;;;;;5012355;28;19953;-66
2022/07/17 09:14:22;;;;;;;;;;;22.10;99.90;;;;;;4992691;28;20012;-66
2022/07/17 09:16:50;;;;;;;;;;;22.00;99.90;;;;;;5013700;28;19932;-66
2022/07/17 09:19:27;;;;;;;;;;;22.00;99.90;;;;;;4994036;28;19925;-66
2022/07/17 09:22:05;;;;;;;;;;;22.10;99.90;;;;;;5015238;28;20386;-67
2022/07/17 09:24:41;;;;;;;;;;;22.20;99.90;;;;;;5019494;28;20012;-67
2022/07/17 09:27:07;;;;;;;;;;;22.20;99.90;;;;;;5007504;28;20365;-67
2022/07/17 09:29:34;;;;;;;;;;;22.30;99.90;;;;;;4993962;28;19926;-67
2022/07/17 09:32:01;;;;;;;;;;;22.50;99.90;;;;;;4994622;28;19940;-67
2022/07/17 09:34:28;;;;;;;;;;;22.50;99.90;;;;;;5014092;28;19925;-67
2022/07/17 09:37:01;;;;;;;;;;;22.50;99.90;;;;;;4994152;28;19926;-67
2022/07/17 09:39:36;;;;;;;;;;;22.40;99.90;;;;;;4993414;28;20339;-68
2022/07/17 09:42:03;;;;;;;;;;;22.50;99.90;;;;;;4992333;28;19960;-66
2022/07/17 09:44:30;;;;;;;;;;;22.70;99.90;;;;;;5026976;28;19926;-67
2022/07/17 09:46:57;;;;;;;;;;;22.90;99.90;;;;;;4995335;28;20306;-66
2022/07/17 09:49:26;;;;;;;;;;;23.00;99.90;;;;;;4994007;28;19933;-65
2022/07/17 09:51:53;;;;;;;;;;;23.20;99.90;;;;;;5011341;28;19925;-73
2022/07/17 09:54:22;;;;;;;;;;;23.40;99.90;;;;;;5016117;28;19926;-66
2022/07/17 09:56:51;;;;;;;;;;;23.50;99.90;;;;;;4993078;28;19983;-66
2022/07/17 09:59:18;;;;;;;;;;;23.40;99.90;;;;;;5006868;28;19933;-66
2022/07/17 10:01:48;;;;;;;;;;;23.50;99.90;;;;;;5007661;28;19980;-64
2022/07/17 10:04:16;;;;;;;;;;;23.60;99.90;;;;;;5014146;28;19926;-66
2022/07/17 10:06:43;;;;;;;;;;;23.50;99.90;;;;;;4992185;28;19929;-66
2022/07/17 10:09:10;;;;;;;;;;;23.60;99.90;;;;;;5014316;28;19933;-67
2022/07/17 10:11:37;;;;;;;;;;;23.70;99.90;;;;;;5023983;28;19948;-67
2022/07/17 10:14:10;;;;;;;;;;;23.90;99.90;;;;;;5009218;28;19925;-67
2022/07/17 10:16:38;;;;;;;;;;;24.10;99.90;;;;;;5013894;28;20087;-67
2022/07/17 10:19:15;;;;;;;;;;;24.20;99.90;;;;;;5012788;28;19925;-67
2022/07/17 10:21:52;;;;;;;;;;;24.30;99.90;;;;;;5025571;28;19933;-65
2022/07/17 10:24:19;;;;;;;;;;;24.20;99.90;;;;;;5009099;28;19953;-66
2022/07/17 10:26:48;;;;;;;;;;;24.00;99.90;;;;;;5010776;28;19932;-65
2022/07/17 10:29:33;;;;;;;;;;;24.00;99.90;;;;;;4993126;28;19925;-67
2022/07/17 10:32:00;;;;;;;;;;;24.20;99.90;;;;;;5012707;28;19929;-67
2022/07/17 10:34:37;;;;;;;;;;;24.30;99.90;;;;;;4993905;28;19931;-66
2022/07/17 10:37:14;;;;;;;;;;;24.50;99.90;;;;;;5011924;28;19933;-69
2022/07/17 10:39:41;;;;;;;;;;;24.60;99.90;;;;;;5007719;28;20440;-67
2022/07/17 10:42:08;;;;;;;;;;;24.80;99.90;;;;;;5007970;28;19926;-66
2022/07/17 10:44:36;;;;;;;;;;;25.00;99.90;;;;;;5005586;28;19929;-67
2022/07/17 10:47:03;;;;;;;;;;;24.90;99.90;;;;;;5008472;28;20381;-68
2022/07/17 10:49:29;;;;;;;;;;;24.90;99.90;;;;;;5012148;28;19925;-67
2022/07/17 10:51:56;;;;;;;;;;;24.80;99.90;;;;;;5010975;28;19949;-67
2022/07/17 10:54:33;;;;;;;;;;;24.70;99.90;;;;;;5009154;28;19932;-66
2022/07/17 10:57:01;;;;;;;;;;;24.70;99.90;;;;;;5007509;28;19925;-68
2022/07/17 10:59:28;;;;;;;;;;;24.90;99.90;;;;;;4992387;28;19929;-65
2022/07/17 11:01:58;;;;;;;;;;;25.10;99.90;;;;;;4993116;28;19925;-65
2022/07/17 11:04:25;;;;;;;;;;;25.10;99.90;;;;;;4993055;28;19925;-68
2022/07/17 11:06:52;;;;;;;;;;;25.00;99.90;;;;;;5010322;28;19929;-63
2022/07/17 11:09:19;;;;;;;;;;;25.00;99.90;;;;;;5013402;28;19926;-64
2022/07/17 11:11:47;;;;;;;;;;;24.90;99.90;;;;;;5013341;28;19968;-63
2022/07/17 11:14:15;;;;;;;;;;;25.10;99.90;;;;;;5029605;28;20389;-63
2022/07/17 11:16:46;;;;;;;;;;;25.10;99.90;;;;;;5013218;28;19929;-64
2022/07/17 11:19:20;;;;;;;;;;;25.10;99.90;;;;;;5015170;28;19932;-68
2022/07/17 11:21:48;;;;;;;;;;;25.20;99.90;;;;;;5013367;28;20286;-66
2022/07/17 11:24:15;;;;;;;;;;;25.40;99.90;;;;;;4995835;28;19926;-66
2022/07/17 11:26:42;;;;;;;;;;;25.60;99.90;;;;;;5014444;28;19980;-66
2022/07/17 11:29:09;;;;;;;;;;;25.80;99.90;;;;;;4995623;28;19968;-66
2022/07/17 11:31:36;;;;;;;;;;;26.00;99.90;;;;;;5014160;28;20397;-66
2022/07/17 11:34:05;;;;;;;;;;;26.20;99.90;;;;;;5006486;28;19941;-66
2022/07/17 11:36:35;;;;;;;;;;;26.40;99.90;;;;;;5000487;28;19925;-65
2022/07/17 11:39:02;;;;;;;;;;;26.70;99.90;;;;;;5011495;28;19963;-66
2022/07/17 11:41:36;;;;;;;;;;;26.90;99.90;;;;;;4995643;28;19925;-66
2022/07/17 11:44:03;;;;;;;;;;;27.60;99.90;;;;;;5012282;28;20435;-66
2022/07/17 11:46:31;;;;;;;;;;;28.40;99.90;;;;;;5014702;28;19933;-66
2022/07/17 11:48:57;;;;;;;;;;;29.20;99.90;;;;;;5013908;28;19930;-66
2022/07/17 11:51:35;;;;;;;;;;;29.80;99.90;;;;;;4995360;28;19929;-66
2022/07/17 11:54:04;;;;;;;;;;;30.50;99.90;;;;;;5008259;28;20405;-66
2022/07/17 11:56:30;;;;;;;;;;;31.60;99.90;;;;;;5010675;28;19926;-66
2022/07/17 11:58:57;;;;;;;;;;;32.90;99.90;;;;;;5011729;28;19935;-66
2022/07/17 12:01:24;;;;;;;;;;;34.00;99.90;;;;;;4995270;28;19933;-68
2022/07/17 12:03:57;;;;;;;;;;;34.30;99.10;;;;;;5010665;28;19925;-66
2022/07/17 12:06:25;;;;;;;;;;;34.80;98.80;;;;;;5009965;28;19929;-65
2022/07/17 12:08:53;;;;;;;;;;;35.40;98.40;;;;;;5014352;28;20005;-65
2022/07/17 12:11:20;;;;;;;;;;;35.70;98.00;;;;;;4993038;28;19929;-66
2022/07/17 12:13:47;;;;;;;;;;;36.10;97.60;;;;;;5015696;28;19929;-67
2022/07/17 12:16:28;;;;;;;;;;;35.50;96.80;;;;;;5011717;28;19929;-66
2022/07/17 12:18:59;;;;;;;;;;;35.00;97.00;;;;;;5010690;28;19929;-66
2022/07/17 12:21:26;;;;;;;;;;;34.20;96.50;;;;;;5028442;28;19933;-66
2022/07/17 12:23:59;;;;;;;;;;;34.30;96.40;;;;;;5011629;28;19982;-70
2022/07/17 12:26:26;;;;;;;;;;;34.00;96.50;;;;;;4995311;28;19952;-71
2022/07/17 12:28:53;;;;;;;;;;;34.90;96.50;;;;;;4994827;28;20071;-69
2022/07/17 12:31:20;;;;;;;;;;;35.50;96.10;;;;;;4995003;28;20388;-66
2022/07/17 12:33:48;;;;;;;;;;;35.20;96.20;;;;;;4995173;28;19925;-67
2022/07/17 12:36:15;;;;;;;;;;;35.20;95.90;;;;;;5008510;28;19941;-67
2022/07/17 12:38:42;;;;;;;;;;;35.40;96.20;;;;;;4994863;28;19929;-72
2022/07/17 12:41:10;;;;;;;;;;;35.90;95.50;;;;;;5027541;28;20324;-71
2022/07/17 12:43:37;;;;;;;;;;;36.10;95.70;;;;;;5010301;28;19926;-71
2022/07/17 12:46:04;;;;;;;;;;;36.70;96.30;;;;;;5013806;28;19934;-74
2022/07/17 12:48:30;;;;;;;;;;;37.60;96.00;;;;;;4994767;28;19925;-68
2022/07/17 12:50:58;;;;;;;;;;;37.30;95.80;;;;;;5010828;28;20004;-66
2022/07/17 12:53:25;;;;;;;;;;;37.50;95.70;;;;;;5025701;28;19933;-66
2022/07/17 12:55:51;;;;;;;;;;;37.90;95.70;;;;;;5014130;28;19925;-68
2022/07/17 12:58:19;;;;;;;;;;;36.80;95.20;;;;;;4994188;28;19932;-67
2022/07/17 13:00:46;;;;;;;;;;;36.40;95.60;;;;;;5010215;28;19925;-67
2022/07/17 13:03:13;;;;;;;;;;;36.30;95.60;;;;;;4994033;28;19925;-66
2022/07/17 13:05:40;;;;;;;;;;;36.00;95.40;;;;;;4994117;28;19925;-67
2022/07/17 13:08:07;;;;;;;;;;;35.90;95.60;;;;;;5010490;28;19929;-67
2022/07/17 13:10:35;;;;;;;;;;;36.20;95.90;;;;;;5009457;28;20141;-67
2022/07/17 13:13:01;;;;;;;;;;;37.10;96.10;;;;;;4994526;28;19929;-67
2022/07/17 13:15:30;;;;;;;;;;;37.70;95.90;;;;;;4994074;28;19929;-68
2022/07/17 13:17:56;;;;;;;;;;;37.60;95.90;;;;;;5015556;28;19926;-68
2022/07/17 13:20:23;;;;;;;;;;;38.00;95.40;;;;;;5014906;28;19948;-65
2022/07/17 13:22:50;;;;;;;;;;;38.70;95.20;;;;;;5015729;28;19933;-67
2022/07/17 13:25:17;;;;;;;;;;;39.40;95.50;;;;;;5012412;28;19929;-66
2022/07/17 13:27:44;;;;;;;;;;;39.30;95.00;;;;;;5011977;28;20460;-67
2022/07/17 13:30:11;;;;;;;;;;;39.30;94.00;;;;;;4993106;28;19929;-67
2022/07/17 13:32:40;;;;;;;;;;;39.00;93.70;;;;;;5011420;28;19925;-66
2022/07/17 13:35:07;;;;;;;;;;;38.80;93.40;;;;;;4993283;28;19925;-66
2022/07/17 13:37:34;;;;;;;;;;;39.10;92.70;;;;;;4993744;28;19929;-71
2022/07/17 13:40:01;;;;;;;;;;;39.80;92.40;;;;;;4993274;28;19932;-74
2022/07/17 13:42:28;;;;;;;;;;;39.50;92.40;;;;;;4993217;28;19971;-66
2022/07/17 13:44:54;;;;;;;;;;;39.10;92.70;;;;;;4992732;28;20309;-66
2022/07/17 13:47:21;;;;;;;;;;;38.20;92.20;;;;;;4994259;28;19925;-66
2022/07/17 13:49:49;;;;;;;;;;;37.90;92.40;;;;;;5010405;28;19926;-66
2022/07/17 13:52:16;;;;;;;;;;;37.70;92.80;;;;;;4991985;28;19929;-66
2022/07/17 13:54:43;;;;;;;;;;;37.60;93.00;;;;;;5010582;28;19937;-66
2022/07/17 13:57:10;;;;;;;;;;;38.10;92.60;;;;;;4995097;28;20274;-66
2022/07/17 13:59:37;;;;;;;;;;;38.60;92.40;;;;;;5016780;28;19933;-66
2022/07/17 14:02:04;;;;;;;;;;;38.60;92.10;;;;;;5010073;28;19925;-70
2022/07/17 14:04:30;;;;;;;;;;;39.00;92.80;;;;;;5006326;28;19929;-68
2022/07/17 14:06:59;;;;;;;;;;;39.00;92.70;;;;;;5017814;28;19951;-68
2022/07/17 14:09:25;;;;;;;;;;;38.80;92.40;;;;;;4993454;28;19940;-68
2022/07/17 14:11:53;;;;;;;;;;;39.30;92.30;;;;;;4992124;28;20012;-67
2022/07/17 14:14:20;;;;;;;;;;;39.70;92.40;;;;;;5009831;28;19926;-68
2022/07/17 14:16:47;;;;;;;;;;;39.40;92.10;;;;;;5012018;28;19925;-68
2022/07/17 14:19:14;;;;;;;;;;;40.00;92.20;;;;;;4985206;28;19929;-68
2022/07/17 14:21:40;;;;;;;;;;;40.70;92.10;;;;;;5015303;28;19949;-68